Texola, Oklahoma
Current Conditions -  °F | °C
As of 10:55 AM on Saturday 20 Dec 2014 (Local Time) from KELK Reporting Station
Overcast Overcast  
Wind Chill: 99°   Ceiling: 700
Heat Index: 175°   Visibility: 10mi
Dew Point: 97°   Wind: 8mph
Humidity: 95%   Direction: 210°SSW
Pressure: 30.22"   Gusts: NA
Location:  35.22°N, 99.99°W
Report Text: KELK 201655Z AUTO 21007KT 10SM OVC007 37/36 A3022 RMK AO2
Loading
Personal Weather Stations






























Interactive Weather Map New forecast layout! Learn more

10-Day Weather Forecast

Advertisements
Track Severe Weather on mobile